createdAt,value
2022-07-26T00:00:18.336Z,24.75
2022-07-26T00:01:18.388Z,24.78
2022-07-26T00:02:18.713Z,24.63
2022-07-26T00:03:18.129Z,24.75
2022-07-26T00:04:18.054Z,24.64
2022-07-26T00:05:17.995Z,24.64
2022-07-26T00:06:18.904Z,24.69
2022-07-26T00:07:17.843Z,24.62
2022-07-26T00:08:17.771Z,24.52
2022-07-26T00:09:17.704Z,24.59
2022-07-26T00:10:17.634Z,24.50
2022-07-26T00:11:17.559Z,24.60
2022-07-26T00:12:17.495Z,24.57
2022-07-26T00:13:17.435Z,24.47
2022-07-26T00:14:17.347Z,24.50
2022-07-26T00:15:17.279Z,24.47
2022-07-26T00:16:17.283Z,24.48
2022-07-26T00:17:17.139Z,24.52
2022-07-26T00:18:17.071Z,24.47
2022-07-26T00:19:16.995Z,24.44
2022-07-26T00:20:16.929Z,24.48
2022-07-26T00:21:16.850Z,24.47
2022-07-26T00:22:16.782Z,24.41
2022-07-26T00:23:16.713Z,24.40
2022-07-26T00:24:16.638Z,24.42
2022-07-26T00:25:16.574Z,24.38
2022-07-26T00:26:16.503Z,24.40
2022-07-26T00:27:16.430Z,24.38
2022-07-26T00:28:16.357Z,24.30
2022-07-26T00:29:16.287Z,24.35
2022-07-26T00:30:16.214Z,24.32
2022-07-26T00:31:16.197Z,24.44
2022-07-26T00:32:16.074Z,24.40
2022-07-26T00:33:16.000Z,24.37
2022-07-26T00:34:15.929Z,24.38
2022-07-26T00:35:15.864Z,24.38
2022-07-26T00:36:15.786Z,24.34
2022-07-26T00:37:20.116Z,24.29
2022-07-26T00:38:15.647Z,24.26
2022-07-26T00:39:15.573Z,24.30
2022-07-26T00:40:15.503Z,24.29
2022-07-26T00:41:15.440Z,24.23
2022-07-26T00:42:15.369Z,24.30
2022-07-26T00:43:15.290Z,24.26
2022-07-26T00:44:15.220Z,24.29
2022-07-26T00:45:15.154Z,24.30
2022-07-26T00:46:15.146Z,24.32
2022-07-26T00:47:15.006Z,24.32
2022-07-26T00:48:14.934Z,24.34
2022-07-26T00:49:15.009Z,24.27
2022-07-26T00:50:14.791Z,24.29
2022-07-26T00:51:14.725Z,24.25
2022-07-26T00:52:14.653Z,24.20
2022-07-26T00:53:14.579Z,24.23
2022-07-26T00:54:14.506Z,24.23
2022-07-26T00:55:14.439Z,24.23
2022-07-26T00:56:14.369Z,24.25
2022-07-26T00:57:14.294Z,24.29
2022-07-26T00:58:14.224Z,24.26
2022-07-26T00:59:14.152Z,24.19
2022-07-26T01:00:14.084Z,24.16
2022-07-26T01:01:14.077Z,24.11
2022-07-26T01:02:13.982Z,24.10
2022-07-26T01:03:13.869Z,24.11
2022-07-26T01:04:13.801Z,24.12
2022-07-26T01:05:13.724Z,24.11
2022-07-26T01:06:13.654Z,24.08
2022-07-26T01:07:14.680Z,24.15
2022-07-26T01:08:13.511Z,24.23
2022-07-26T01:09:13.442Z,24.19
2022-07-26T01:10:13.371Z,24.17
2022-07-26T01:11:13.299Z,24.17
2022-07-26T01:12:13.227Z,24.22
2022-07-26T01:13:13.171Z,24.16
2022-07-26T01:14:13.086Z,24.17
2022-07-26T01:15:13.017Z,24.11
2022-07-26T01:16:13.015Z,24.12
2022-07-26T01:17:12.880Z,24.04
2022-07-26T01:18:12.798Z,24.08
2022-07-26T01:19:12.725Z,24.12
2022-07-26T01:20:12.660Z,24.00
2022-07-26T01:21:13.201Z,23.95
2022-07-26T01:22:14.612Z,23.95
2022-07-26T01:23:12.444Z,23.92
2022-07-26T01:24:12.370Z,23.95
2022-07-26T01:25:12.297Z,23.89
2022-07-26T01:26:12.226Z,23.85
2022-07-26T01:27:12.157Z,23.90
2022-07-26T01:28:12.085Z,23.82
2022-07-26T01:29:12.009Z,23.87
2022-07-26T01:30:11.948Z,23.86
2022-07-26T01:31:11.900Z,23.89
2022-07-26T01:32:11.800Z,23.89
2022-07-26T01:33:11.726Z,23.82
2022-07-26T01:34:12.014Z,23.89
2022-07-26T01:35:11.587Z,23.83
2022-07-26T01:36:11.512Z,23.89
2022-07-26T01:37:11.442Z,23.79
2022-07-26T01:38:11.398Z,23.75
2022-07-26T01:39:11.298Z,23.70
2022-07-26T01:40:11.231Z,23.68
2022-07-26T01:41:11.154Z,23.61
2022-07-26T01:42:11.087Z,23.64
2022-07-26T01:43:11.013Z,23.60
2022-07-26T01:44:11.270Z,23.55
2022-07-26T01:45:10.866Z,23.56
2022-07-26T01:46:10.887Z,23.53
2022-07-26T01:47:10.724Z,23.42
2022-07-26T01:48:10.655Z,23.49
2022-07-26T01:49:10.673Z,23.49
2022-07-26T01:50:10.510Z,23.48
2022-07-26T01:51:10.442Z,23.46
2022-07-26T01:52:10.371Z,23.49
2022-07-26T01:53:10.294Z,23.52
2022-07-26T01:54:10.829Z,23.53
2022-07-26T01:55:10.152Z,23.42
2022-07-26T01:56:10.080Z,23.46
2022-07-26T01:57:10.009Z,23.46
2022-07-26T01:58:09.948Z,23.42
2022-07-26T01:59:09.861Z,23.45
2022-07-26T02:00:09.793Z,23.37
2022-07-26T02:01:09.794Z,23.34
2022-07-26T02:02:09.718Z,23.38
2022-07-26T02:03:09.670Z,23.27
2022-07-26T02:04:09.870Z,23.35
2022-07-26T02:05:09.433Z,23.33
2022-07-26T02:06:09.363Z,23.14
2022-07-26T02:07:12.896Z,23.14
2022-07-26T02:08:09.662Z,23.17
2022-07-26T02:09:10.692Z,23.23
2022-07-26T02:10:09.080Z,23.20
2022-07-26T02:11:09.003Z,23.20
2022-07-26T02:12:08.934Z,23.22
2022-07-26T02:13:08.859Z,23.22
2022-07-26T02:14:09.256Z,23.15
2022-07-26T02:15:08.719Z,23.26
2022-07-26T02:16:08.753Z,23.24
2022-07-26T02:17:08.572Z,23.17
2022-07-26T02:18:08.502Z,23.17
2022-07-26T02:19:08.428Z,23.22
2022-07-26T02:20:08.365Z,23.17
2022-07-26T02:21:08.282Z,23.09
2022-07-26T02:22:08.214Z,23.20
2022-07-26T02:23:08.145Z,23.17
2022-07-26T02:24:08.585Z,23.18
2022-07-26T02:25:07.996Z,23.20
2022-07-26T02:26:07.927Z,23.15
2022-07-26T02:27:07.863Z,23.20
2022-07-26T02:28:07.782Z,23.14
2022-07-26T02:29:07.710Z,23.14
2022-07-26T02:30:07.645Z,23.20
2022-07-26T02:31:07.613Z,23.12
2022-07-26T02:32:07.494Z,23.14
2022-07-26T02:33:07.425Z,23.20
2022-07-26T02:34:07.692Z,23.23
2022-07-26T02:35:07.276Z,23.15
2022-07-26T02:36:07.208Z,23.11
2022-07-26T02:37:07.137Z,23.17
2022-07-26T02:38:07.062Z,23.22
2022-07-26T02:39:06.990Z,23.18
2022-07-26T02:40:06.919Z,23.11
2022-07-26T02:41:06.847Z,23.12
2022-07-26T02:42:06.775Z,23.04
2022-07-26T02:43:06.702Z,23.00
2022-07-26T02:44:06.949Z,22.97
2022-07-26T02:45:06.558Z,22.94
2022-07-26T02:46:06.536Z,22.99
2022-07-26T02:47:06.418Z,23.00
2022-07-26T02:48:06.344Z,22.94
2022-07-26T02:49:06.402Z,23.00
2022-07-26T02:50:06.197Z,22.96
2022-07-26T02:51:06.124Z,23.02
2022-07-26T02:52:06.058Z,22.94
2022-07-26T02:53:05.982Z,23.07
2022-07-26T02:54:06.292Z,23.00
2022-07-26T02:55:05.836Z,22.96
2022-07-26T02:56:05.766Z,22.96
2022-07-26T02:57:05.692Z,22.93
2022-07-26T02:58:05.622Z,22.94
2022-07-26T02:59:05.549Z,22.99
2022-07-26T03:00:05.476Z,22.96
2022-07-26T03:01:05.466Z,22.94
2022-07-26T03:02:05.398Z,22.96
2022-07-26T03:03:05.326Z,22.96
2022-07-26T03:04:05.495Z,22.96
2022-07-26T03:05:05.122Z,22.97
2022-07-26T03:06:05.058Z,22.94
2022-07-26T03:07:04.975Z,22.86
2022-07-26T03:08:04.900Z,22.93
2022-07-26T03:09:04.826Z,22.93
2022-07-26T03:10:04.762Z,22.89
2022-07-26T03:11:07.862Z,22.89
2022-07-26T03:12:04.610Z,22.89
2022-07-26T03:13:04.539Z,22.92
2022-07-26T03:14:04.609Z,22.89
2022-07-26T03:15:04.393Z,22.92
2022-07-26T03:16:04.372Z,22.90
2022-07-26T03:17:04.247Z,22.93
2022-07-26T03:18:04.174Z,22.87
2022-07-26T03:19:04.103Z,22.90
2022-07-26T03:20:04.033Z,22.89
2022-07-26T03:21:03.957Z,22.94
2022-07-26T03:22:03.892Z,22.92
2022-07-26T03:23:03.815Z,22.92
2022-07-26T03:24:03.744Z,22.90
2022-07-26T03:25:03.675Z,22.96
2022-07-26T03:26:03.601Z,22.94
2022-07-26T03:27:03.524Z,22.96
2022-07-26T03:28:03.455Z,22.92
2022-07-26T03:29:03.383Z,22.93
2022-07-26T03:30:03.312Z,22.94
2022-07-26T03:31:03.318Z,22.92
2022-07-26T03:32:03.165Z,22.94
2022-07-26T03:33:03.091Z,22.92
2022-07-26T03:34:03.510Z,22.92
2022-07-26T03:35:02.949Z,22.90
2022-07-26T03:36:02.877Z,22.90
2022-07-26T03:37:02.802Z,22.93
2022-07-26T03:38:02.732Z,22.93
2022-07-26T03:39:02.660Z,22.87
2022-07-26T03:40:02.590Z,22.92
2022-07-26T03:41:02.515Z,22.86
2022-07-26T03:42:02.441Z,22.90
2022-07-26T03:43:02.963Z,22.86
2022-07-26T03:44:02.296Z,22.87
2022-07-26T03:45:02.226Z,22.89
2022-07-26T03:46:02.217Z,22.89
2022-07-26T03:47:02.078Z,22.90
2022-07-26T03:48:02.010Z,22.92
2022-07-26T03:49:01.980Z,22.92
2022-07-26T03:50:01.861Z,22.93
2022-07-26T03:51:01.789Z,22.93
2022-07-26T03:52:01.721Z,22.87
2022-07-26T03:53:01.653Z,22.84
2022-07-26T03:54:01.570Z,22.89
2022-07-26T03:55:01.507Z,22.89
2022-07-26T03:56:01.427Z,22.94
2022-07-26T03:57:01.353Z,22.93
2022-07-26T03:58:01.280Z,22.86
2022-07-26T03:59:01.209Z,22.84
2022-07-26T04:00:01.139Z,22.86
2022-07-26T04:01:01.172Z,22.89
2022-07-26T04:02:01.076Z,22.83
2022-07-26T04:03:00.968Z,22.83
2022-07-26T04:04:00.849Z,22.92
2022-07-26T04:05:00.777Z,22.89
2022-07-26T04:06:00.703Z,22.87
2022-07-26T04:07:03.127Z,22.90
2022-07-26T04:08:00.562Z,22.90
2022-07-26T04:09:00.485Z,22.90
2022-07-26T04:10:00.415Z,22.84
2022-07-26T04:11:00.350Z,22.81
2022-07-26T04:12:00.276Z,22.92
2022-07-26T04:13:00.205Z,22.86
2022-07-26T04:14:00.123Z,22.92
2022-07-26T04:15:00.054Z,22.87
2022-07-26T04:15:59.984Z,22.72
2022-07-26T04:16:59.949Z,22.84
2022-07-26T04:17:59.842Z,22.72
2022-07-26T04:18:59.767Z,22.77
2022-07-26T04:19:59.688Z,22.79
2022-07-26T04:20:59.622Z,22.86
2022-07-26T04:21:59.544Z,22.83
2022-07-26T04:22:59.478Z,22.86
2022-07-26T04:23:59.402Z,22.83
2022-07-26T04:24:59.331Z,22.86
2022-07-26T04:25:59.258Z,22.89
2022-07-26T04:26:59.183Z,22.97
2022-07-26T04:27:59.119Z,22.87
2022-07-26T04:28:59.045Z,22.86
2022-07-26T04:29:58.967Z,22.78
2022-07-26T04:30:58.924Z,22.90
2022-07-26T04:31:58.824Z,22.90
2022-07-26T04:32:58.748Z,22.86
2022-07-26T04:33:58.678Z,22.86
2022-07-26T04:34:58.608Z,22.81
2022-07-26T04:35:58.535Z,22.90
2022-07-26T04:36:58.459Z,22.87
2022-07-26T04:37:58.391Z,22.87
2022-07-26T04:38:58.316Z,22.90
2022-07-26T04:39:58.241Z,22.83
2022-07-26T04:40:58.174Z,22.83
2022-07-26T04:41:58.094Z,22.84
2022-07-26T04:42:58.027Z,22.81
2022-07-26T04:43:57.953Z,22.87
2022-07-26T04:44:57.882Z,22.81
2022-07-26T04:45:57.878Z,22.79
2022-07-26T04:46:57.739Z,22.83
2022-07-26T04:47:57.661Z,22.83
2022-07-26T04:48:57.655Z,22.79
2022-07-26T04:49:57.521Z,22.84
2022-07-26T04:50:57.451Z,22.79
2022-07-26T04:51:59.347Z,22.87
2022-07-26T04:52:57.301Z,22.84
2022-07-26T04:53:57.233Z,22.84
2022-07-26T04:54:57.159Z,22.89
2022-07-26T04:55:57.086Z,22.83
2022-07-26T04:56:57.009Z,22.84
2022-07-26T04:57:56.937Z,22.77
2022-07-26T04:58:56.865Z,22.79
2022-07-26T05:00:16.650Z,22.83
2022-07-26T05:01:09.609Z,22.87
2022-07-26T05:01:56.708Z,22.78
2022-07-26T05:02:56.624Z,22.72
2022-07-26T05:03:56.503Z,22.79
2022-07-26T05:04:56.431Z,22.83
2022-07-26T05:05:56.357Z,22.75
2022-07-26T05:06:56.285Z,22.78
2022-07-26T05:07:56.211Z,22.72
2022-07-26T05:08:56.141Z,22.71
2022-07-26T05:09:56.069Z,22.69
2022-07-26T05:10:56.226Z,22.77
2022-07-26T05:11:55.930Z,22.72
2022-07-26T05:12:55.850Z,22.79
2022-07-26T05:13:55.777Z,22.78
2022-07-26T05:14:55.705Z,22.78
2022-07-26T05:15:55.632Z,22.77
2022-07-26T05:16:55.607Z,22.77
2022-07-26T05:17:55.493Z,22.74
2022-07-26T05:18:55.419Z,22.86
2022-07-26T05:19:56.878Z,22.86
2022-07-26T05:20:55.271Z,22.78
2022-07-26T05:21:55.195Z,22.84
2022-07-26T05:22:55.126Z,22.92
2022-07-26T05:23:55.053Z,22.84
2022-07-26T05:24:54.978Z,22.86
2022-07-26T05:25:54.905Z,22.90
2022-07-26T05:26:58.554Z,22.86
2022-07-26T05:27:54.764Z,22.86
2022-07-26T05:28:54.689Z,22.90
2022-07-26T05:29:54.617Z,22.93
2022-07-26T05:30:54.609Z,22.99
2022-07-26T05:31:54.475Z,22.96
2022-07-26T05:32:54.400Z,23.02
2022-07-26T05:33:54.324Z,23.04
2022-07-26T05:34:54.254Z,23.04
2022-07-26T05:35:54.182Z,22.92
2022-07-26T05:36:54.107Z,23.04
2022-07-26T05:37:54.039Z,23.12
2022-07-26T05:38:53.965Z,22.99
2022-07-26T05:39:53.898Z,23.15
2022-07-26T05:40:53.828Z,23.09
2022-07-26T05:41:53.748Z,23.00
2022-07-26T05:42:53.672Z,22.97
2022-07-26T05:43:53.603Z,23.12
2022-07-26T05:44:53.528Z,22.99
2022-07-26T05:45:53.503Z,23.04
2022-07-26T05:46:53.390Z,23.04
2022-07-26T05:47:53.315Z,23.02
2022-07-26T05:48:53.287Z,23.08
2022-07-26T05:49:53.167Z,23.11
2022-07-26T05:50:53.094Z,23.17
2022-07-26T05:51:55.859Z,23.18
2022-07-26T05:52:52.950Z,23.09
2022-07-26T05:53:52.880Z,23.09
2022-07-26T05:54:52.803Z,23.14
2022-07-26T05:55:52.732Z,23.08
2022-07-26T05:56:52.658Z,23.17
2022-07-26T05:57:52.587Z,23.20
2022-07-26T05:58:52.521Z,23.15
2022-07-26T05:59:52.441Z,23.07
2022-07-26T06:00:52.369Z,23.09
2022-07-26T06:01:52.316Z,23.08
2022-07-26T06:02:52.302Z,23.05
2022-07-26T06:03:52.195Z,23.09
2022-07-26T06:04:52.166Z,23.05
2022-07-26T06:05:52.006Z,23.02
2022-07-26T06:06:51.931Z,23.11
2022-07-26T06:07:51.870Z,23.04
2022-07-26T06:08:51.787Z,23.02
2022-07-26T06:09:51.720Z,22.92
2022-07-26T06:10:51.642Z,23.02
2022-07-26T06:11:51.574Z,22.94
2022-07-26T06:12:51.505Z,22.97
2022-07-26T06:13:55.006Z,23.02
2022-07-26T06:14:51.353Z,22.97
2022-07-26T06:15:51.283Z,22.96
2022-07-26T06:16:51.273Z,23.07
2022-07-26T06:17:51.139Z,23.05
2022-07-26T06:18:51.067Z,23.07
2022-07-26T06:19:50.997Z,23.00
2022-07-26T06:20:50.918Z,22.94
2022-07-26T06:21:50.853Z,23.08
2022-07-26T06:22:50.773Z,23.07
2022-07-26T06:23:50.702Z,23.02
2022-07-26T06:24:50.631Z,23.05
2022-07-26T06:25:50.555Z,23.08
2022-07-26T06:26:54.723Z,23.00
2022-07-26T06:27:50.414Z,22.92
2022-07-26T06:28:50.343Z,22.94
2022-07-26T06:29:50.266Z,22.94
2022-07-26T06:30:50.195Z,22.87
2022-07-26T06:31:50.158Z,22.83
2022-07-26T06:32:50.051Z,22.81
2022-07-26T06:33:49.981Z,22.78
2022-07-26T06:34:49.905Z,22.89
2022-07-26T06:35:49.836Z,22.89
2022-07-26T06:36:49.759Z,22.92
2022-07-26T06:37:49.691Z,22.94
2022-07-26T06:38:49.618Z,23.08
2022-07-26T06:39:49.544Z,23.11
2022-07-26T06:40:49.469Z,23.18
2022-07-26T06:41:49.398Z,23.17
2022-07-26T06:42:49.323Z,23.15
2022-07-26T06:43:49.255Z,23.26
2022-07-26T06:44:49.175Z,23.35
2022-07-26T06:45:49.166Z,23.35
2022-07-26T06:46:49.036Z,23.40
2022-07-26T06:47:48.963Z,23.40
2022-07-26T06:48:53.063Z,23.43
2022-07-26T06:49:48.817Z,23.46
2022-07-26T06:50:48.744Z,23.48
2022-07-26T06:51:48.674Z,23.50
2022-07-26T06:52:48.603Z,23.46
2022-07-26T06:53:48.530Z,23.45
2022-07-26T06:54:48.455Z,23.52
2022-07-26T06:55:48.383Z,23.58
2022-07-26T06:56:48.313Z,23.58
2022-07-26T06:57:50.135Z,23.60
2022-07-26T06:58:48.165Z,23.61
2022-07-26T06:59:48.098Z,23.72
2022-07-26T07:00:48.101Z,23.68
2022-07-26T07:01:55.599Z,23.79
2022-07-26T07:02:47.881Z,23.70
2022-07-26T07:03:47.810Z,23.79
2022-07-26T07:04:47.827Z,23.72
2022-07-26T07:05:49.956Z,23.75
2022-07-26T07:06:47.585Z,23.79
2022-07-26T07:07:47.519Z,23.92
2022-07-26T07:08:47.443Z,23.89
2022-07-26T07:09:47.373Z,23.98
2022-07-26T07:10:47.296Z,24.10
2022-07-26T07:11:48.423Z,24.05
2022-07-26T07:12:47.151Z,24.20
2022-07-26T07:13:47.085Z,24.17
2022-07-26T07:14:47.018Z,24.19
2022-07-26T07:15:46.938Z,24.23
2022-07-26T07:16:46.925Z,24.30
2022-07-26T07:17:46.796Z,24.30
2022-07-26T07:18:46.721Z,24.50
2022-07-26T07:19:46.651Z,24.52
2022-07-26T07:20:46.581Z,24.59
2022-07-26T07:21:46.520Z,24.67
2022-07-26T07:22:46.438Z,24.66
2022-07-26T07:23:46.366Z,24.73
2022-07-26T07:24:46.613Z,24.76
2022-07-26T07:25:46.221Z,24.80
2022-07-26T07:26:46.150Z,24.90
2022-07-26T07:27:46.081Z,24.86
2022-07-26T07:28:46.010Z,24.88
2022-07-26T07:29:45.931Z,24.90
2022-07-26T07:30:45.858Z,25.01
2022-07-26T07:31:48.672Z,25.00
2022-07-26T07:32:45.717Z,25.05
2022-07-26T07:33:53.825Z,25.08
2022-07-26T07:34:45.575Z,25.05
2022-07-26T07:35:45.505Z,25.10
2022-07-26T07:36:45.432Z,25.27
2022-07-26T07:37:52.541Z,25.22
2022-07-26T07:38:45.298Z,25.16
2022-07-26T07:39:50.094Z,25.27
2022-07-26T07:40:45.143Z,25.42
2022-07-26T07:41:45.077Z,25.46
2022-07-26T07:42:45.001Z,25.62
2022-07-26T07:43:44.930Z,25.68
2022-07-26T07:44:44.862Z,25.79
2022-07-26T07:45:44.789Z,25.90
2022-07-26T07:46:44.769Z,25.84
2022-07-26T07:47:44.652Z,25.93
2022-07-26T07:48:47.489Z,25.96
2022-07-26T07:49:44.506Z,26.05
2022-07-26T07:50:44.434Z,26.11
2022-07-26T07:51:44.369Z,26.27
2022-07-26T07:52:44.292Z,26.31
2022-07-26T07:53:56.684Z,26.46
2022-07-26T07:54:44.149Z,26.58
2022-07-26T07:55:46.631Z,26.53
2022-07-26T07:56:44.011Z,26.53
2022-07-26T07:57:43.945Z,26.58
2022-07-26T07:58:43.869Z,26.57
2022-07-26T07:59:43.803Z,26.61
2022-07-26T08:00:43.830Z,26.75
2022-07-26T08:01:45.136Z,26.87
2022-07-26T08:02:43.588Z,26.94
2022-07-26T08:03:43.562Z,27.02
2022-07-26T08:04:43.544Z,27.19
2022-07-26T08:05:43.380Z,27.14
2022-07-26T08:06:43.308Z,27.23
2022-07-26T08:07:43.236Z,27.24
2022-07-26T08:08:43.163Z,27.02
2022-07-26T08:09:43.343Z,26.94
2022-07-26T08:10:49.122Z,26.84
2022-07-26T08:11:42.962Z,26.92
2022-07-26T08:12:42.885Z,27.02
2022-07-26T08:13:47.488Z,27.07
2022-07-26T08:14:42.746Z,27.19
2022-07-26T08:15:42.675Z,27.23
2022-07-26T08:16:42.628Z,27.21
2022-07-26T08:17:42.535Z,27.24
2022-07-26T08:18:56.156Z,27.35
2022-07-26T08:19:42.617Z,27.34
2022-07-26T08:20:42.326Z,27.38
2022-07-26T08:21:42.260Z,27.50
2022-07-26T08:22:42.186Z,27.58
2022-07-26T08:23:42.120Z,27.57
2022-07-26T08:24:42.049Z,27.53
2022-07-26T08:25:55.202Z,27.34
2022-07-26T08:26:41.908Z,27.32
2022-07-26T08:27:42.181Z,27.26
2022-07-26T08:28:59.256Z,27.17
2022-07-26T08:29:41.701Z,27.08
2022-07-26T08:30:41.630Z,27.07
2022-07-26T08:31:41.595Z,27.14
2022-07-26T08:32:41.489Z,27.26
2022-07-26T08:33:45.942Z,27.36
2022-07-26T08:34:41.359Z,27.53
2022-07-26T08:35:41.292Z,27.65
2022-07-26T08:36:54.899Z,27.79
2022-07-26T08:37:41.151Z,27.92
2022-07-26T08:38:41.080Z,28.04
2022-07-26T08:39:41.006Z,28.17
2022-07-26T08:40:40.935Z,28.41
2022-07-26T08:41:40.873Z,28.39
2022-07-26T08:42:40.807Z,28.56
2022-07-26T08:43:51.283Z,28.50
2022-07-26T08:44:40.662Z,28.65
2022-07-26T08:45:40.591Z,28.56
2022-07-26T08:46:40.549Z,28.56
2022-07-26T08:48:00.859Z,28.41
2022-07-26T08:48:40.421Z,28.28
2022-07-26T08:49:40.320Z,28.28
2022-07-26T08:50:40.246Z,28.19
2022-07-26T08:51:40.183Z,28.16
2022-07-26T08:52:40.110Z,28.09
2022-07-26T08:53:40.041Z,27.94
2022-07-26T08:54:39.974Z,27.87
2022-07-26T08:56:05.305Z,27.64
2022-07-26T08:56:39.838Z,27.61
2022-07-26T08:57:39.765Z,27.50
2022-07-26T08:58:39.699Z,27.34
2022-07-26T08:59:39.632Z,27.34
2022-07-26T09:00:39.632Z,27.36
2022-07-26T09:01:39.492Z,27.39
2022-07-26T09:02:39.423Z,27.69
2022-07-26T09:03:39.401Z,27.88
2022-07-26T09:04:44.296Z,28.01
2022-07-26T09:05:39.219Z,28.35
2022-07-26T09:06:39.148Z,28.35
2022-07-26T09:07:39.080Z,28.49
2022-07-26T09:08:39.005Z,28.57
2022-07-26T09:09:38.945Z,28.59
2022-07-26T09:10:39.408Z,28.56
2022-07-26T09:11:38.808Z,28.57
2022-07-26T09:12:38.738Z,28.81
2022-07-26T09:13:38.670Z,28.94
2022-07-26T09:14:38.597Z,28.96
2022-07-26T09:15:38.531Z,29.09
2022-07-26T09:16:40.105Z,29.18
2022-07-26T09:17:38.399Z,29.14
2022-07-26T09:18:38.321Z,29.04
2022-07-26T09:19:38.257Z,29.04
2022-07-26T09:20:38.188Z,29.03
2022-07-26T09:21:38.121Z,29.04
2022-07-26T09:22:38.060Z,29.06
2022-07-26T09:23:37.985Z,28.90
2022-07-26T09:24:37.913Z,28.71
2022-07-26T09:25:37.849Z,28.66
2022-07-26T09:26:37.781Z,28.50
2022-07-26T09:27:37.713Z,28.41
2022-07-26T09:28:37.639Z,28.35
2022-07-26T09:29:37.578Z,28.06
2022-07-26T09:30:37.511Z,27.83
2022-07-26T09:31:37.474Z,27.74
2022-07-26T09:32:37.372Z,27.50
2022-07-26T09:33:37.305Z,27.44
2022-07-26T09:34:37.235Z,27.34
2022-07-26T09:35:52.623Z,27.26
2022-07-26T09:36:37.092Z,27.20
2022-07-26T09:37:37.033Z,27.24
2022-07-26T09:38:36.956Z,27.24
2022-07-26T09:39:36.889Z,27.29
2022-07-26T09:40:36.822Z,27.34
2022-07-26T09:41:36.863Z,27.42
2022-07-26T09:42:36.686Z,27.54
2022-07-26T09:43:36.615Z,27.51
2022-07-26T09:44:37.356Z,27.70
2022-07-26T09:45:36.479Z,27.65
2022-07-26T09:46:36.478Z,27.64
2022-07-26T09:47:36.368Z,27.62
2022-07-26T09:49:06.871Z,27.29
2022-07-26T09:49:40.684Z,27.31
2022-07-26T09:50:36.139Z,27.29
2022-07-26T09:51:36.070Z,27.29
2022-07-26T09:52:36.001Z,27.39
2022-07-26T09:53:35.927Z,27.76
2022-07-26T09:54:35.861Z,27.87
2022-07-26T09:55:44.220Z,27.97
2022-07-26T09:56:35.723Z,28.19
2022-07-26T09:57:35.652Z,28.44
2022-07-26T09:58:35.587Z,28.61
2022-07-26T09:59:35.520Z,28.78
2022-07-26T10:00:35.452Z,29.06
2022-07-26T10:01:35.428Z,29.21
2022-07-26T10:02:35.428Z,29.23
2022-07-26T10:03:35.246Z,29.37
2022-07-26T10:04:35.375Z,29.43
2022-07-26T10:05:35.111Z,29.40
2022-07-26T10:06:35.041Z,29.53
2022-07-26T10:07:34.973Z,29.68
2022-07-26T10:08:34.905Z,29.77
2022-07-26T10:09:34.830Z,29.77
2022-07-26T10:10:34.770Z,29.48
2022-07-26T10:11:34.697Z,29.34
2022-07-26T10:12:34.630Z,29.22
2022-07-26T10:13:34.564Z,29.07
2022-07-26T10:14:34.496Z,29.04
2022-07-26T10:15:34.592Z,28.72
2022-07-26T10:16:34.565Z,28.61
2022-07-26T10:17:35.109Z,28.46
2022-07-26T10:18:34.227Z,28.09
2022-07-26T10:19:37.816Z,27.80
2022-07-26T10:20:34.085Z,27.72
2022-07-26T10:21:34.022Z,27.46
2022-07-26T10:22:33.984Z,27.39
2022-07-26T10:23:33.885Z,27.32
2022-07-26T10:24:33.822Z,27.39
2022-07-26T10:25:33.745Z,27.39
2022-07-26T10:26:33.680Z,27.50
2022-07-26T10:27:33.612Z,27.54
2022-07-26T10:28:33.550Z,27.49
2022-07-26T10:29:33.473Z,27.49
2022-07-26T10:30:35.391Z,27.50
2022-07-26T10:31:33.434Z,27.61
2022-07-26T10:32:33.272Z,27.61
2022-07-26T10:33:33.200Z,27.70
2022-07-26T10:34:33.130Z,27.64
2022-07-26T10:35:33.060Z,27.72
2022-07-26T10:36:33.000Z,27.83
2022-07-26T10:37:32.924Z,27.89
2022-07-26T10:38:32.858Z,27.92
2022-07-26T10:39:32.795Z,28.07
2022-07-26T10:40:32.718Z,27.89
2022-07-26T10:41:32.655Z,27.99
2022-07-26T10:42:32.588Z,27.88
2022-07-26T10:43:41.549Z,27.51
2022-07-26T10:44:32.444Z,27.54
2022-07-26T10:45:32.373Z,27.34
2022-07-26T10:46:32.389Z,27.01
2022-07-26T10:47:35.390Z,26.95
2022-07-26T10:48:32.244Z,26.84
2022-07-26T10:49:32.101Z,26.84
2022-07-26T10:50:32.039Z,26.92
2022-07-26T10:51:31.963Z,26.82
2022-07-26T10:52:31.896Z,27.05
2022-07-26T10:53:31.827Z,27.24
2022-07-26T10:54:31.762Z,27.53
2022-07-26T10:55:31.695Z,27.80
2022-07-26T10:56:33.699Z,28.06
2022-07-26T10:57:31.551Z,28.39
2022-07-26T10:58:31.483Z,28.59
2022-07-26T10:59:53.621Z,28.88
2022-07-26T11:00:31.345Z,29.03
2022-07-26T11:01:31.320Z,29.14
2022-07-26T11:02:31.262Z,29.32
2022-07-26T11:03:35.408Z,29.55
2022-07-26T11:04:31.076Z,29.63
2022-07-26T11:05:31.006Z,29.63
2022-07-26T11:06:30.933Z,29.62
2022-07-26T11:07:30.875Z,29.66
2022-07-26T11:08:30.799Z,29.80
2022-07-26T11:09:30.733Z,29.78
2022-07-26T11:10:30.661Z,29.73
2022-07-26T11:11:30.591Z,29.83
2022-07-26T11:12:30.525Z,29.99
2022-07-26T11:13:30.472Z,30.02
2022-07-26T11:14:30.393Z,30.08
2022-07-26T11:15:30.389Z,30.18
2022-07-26T11:16:30.315Z,30.22
2022-07-26T11:17:30.186Z,30.34
2022-07-26T11:18:30.124Z,30.39
2022-07-26T11:19:30.054Z,30.52
2022-07-26T11:20:30.191Z,30.49
2022-07-26T11:21:29.917Z,30.50
2022-07-26T11:22:29.848Z,30.39
2022-07-26T11:23:29.790Z,30.46
2022-07-26T11:24:29.723Z,30.55
2022-07-26T11:25:29.650Z,30.53
2022-07-26T11:26:29.583Z,30.65
2022-07-26T11:27:29.514Z,30.64
2022-07-26T11:28:29.448Z,30.74
2022-07-26T11:29:38.531Z,30.92
2022-07-26T11:30:29.312Z,30.89
2022-07-26T11:31:51.094Z,30.49
2022-07-26T11:32:29.231Z,30.34
2022-07-26T11:33:29.110Z,30.26
2022-07-26T11:34:29.053Z,30.06
2022-07-26T11:35:29.853Z,29.78
2022-07-26T11:36:28.914Z,29.58
2022-07-26T11:37:28.845Z,29.51
2022-07-26T11:38:28.777Z,29.50
2022-07-26T11:39:28.714Z,29.37
2022-07-26T11:40:28.642Z,29.36
2022-07-26T11:41:34.456Z,29.14
2022-07-26T11:42:28.514Z,29.18
2022-07-26T11:43:28.443Z,29.34
2022-07-26T11:44:28.380Z,29.51
2022-07-26T11:45:28.308Z,29.65
2022-07-26T11:46:28.289Z,29.85
2022-07-26T11:47:28.172Z,29.99
2022-07-26T11:48:28.143Z,30.03
2022-07-26T11:49:52.407Z,30.18
2022-07-26T11:50:27.973Z,30.29
2022-07-26T11:51:27.903Z,30.40
2022-07-26T11:52:27.843Z,30.32
2022-07-26T11:53:27.771Z,30.49
2022-07-26T11:54:27.711Z,30.49
2022-07-26T11:55:27.754Z,30.49
2022-07-26T11:56:27.570Z,30.49
2022-07-26T11:57:27.505Z,30.34
2022-07-26T11:58:27.443Z,30.18
2022-07-26T11:59:27.371Z,29.97
2022-07-26T12:00:27.302Z,29.81
2022-07-26T12:01:27.232Z,29.87
2022-07-26T12:02:27.171Z,29.89
2022-07-26T12:03:27.105Z,29.75
2022-07-26T12:04:27.215Z,29.80
2022-07-26T12:05:27.091Z,29.65
2022-07-26T12:06:26.899Z,29.55
2022-07-26T12:07:26.832Z,29.34
2022-07-26T12:08:26.766Z,29.25
2022-07-26T12:09:26.697Z,29.21
2022-07-26T12:10:26.639Z,29.32
2022-07-26T12:11:26.563Z,29.44
2022-07-26T12:12:26.807Z,29.51
2022-07-26T12:13:26.436Z,29.74
2022-07-26T12:14:26.367Z,29.95
2022-07-26T12:15:26.398Z,30.00
2022-07-26T12:16:26.262Z,30.26
2022-07-26T12:17:26.163Z,30.40
2022-07-26T12:18:26.094Z,30.50
2022-07-26T12:19:26.028Z,30.72
2022-07-26T12:20:25.972Z,30.65
2022-07-26T12:21:25.895Z,30.75
2022-07-26T12:22:25.873Z,30.81
2022-07-26T12:23:25.762Z,30.74
2022-07-26T12:24:25.695Z,30.64
2022-07-26T12:25:25.637Z,30.55
2022-07-26T12:26:25.576Z,30.56
2022-07-26T12:27:25.496Z,30.57
2022-07-26T12:28:25.428Z,30.62
2022-07-26T12:29:25.360Z,30.55
2022-07-26T12:30:25.295Z,30.48
2022-07-26T12:31:25.397Z,30.40
2022-07-26T12:32:25.163Z,30.24
2022-07-26T12:33:25.100Z,30.11
2022-07-26T12:34:25.028Z,29.80
2022-07-26T12:35:24.961Z,29.62
2022-07-26T12:36:27.789Z,29.63
2022-07-26T12:37:32.571Z,29.73
2022-07-26T12:38:24.762Z,29.68
2022-07-26T12:39:24.692Z,29.78
2022-07-26T12:40:24.629Z,29.92
2022-07-26T12:41:24.559Z,30.11
2022-07-26T12:42:34.313Z,30.34
2022-07-26T12:43:24.427Z,30.40
2022-07-26T12:44:24.371Z,30.40
2022-07-26T12:45:24.295Z,30.39
2022-07-26T12:46:24.298Z,30.49
2022-07-26T12:47:24.158Z,30.65
2022-07-26T12:48:24.092Z,30.74
2022-07-26T12:49:24.129Z,30.60
2022-07-26T12:50:23.962Z,30.79
2022-07-26T12:51:23.893Z,30.97